Pagina principale
METAR-TAF:

METAR-TAF

Aeroporti :

Aeroporto di Bergamo-Orio al Serio

Bergamo, Italia

latitudine: 45-40N, longitudine: 009-42E, altezza: 238 m

Osservazione

Il bollettino è stato emesso 14 minuti fa, alle 14:20 UTC
Vento 6 kt da sud/sud-ovest, variando fra sud e ovest/sud-ovest
Temperature 27°C
Umidità 34%
Pressione 1013 hPa
Visibilità 10 km o più
nessuna nube inferiore a 1500 m e nessun cumulonembo

METAR: LIME 131420Z 20006KT 170V240 CAVOK 27/10 Q1013 NOSIG

Ora: 16:34 (14:34 UTC)

Previsione

Il bollettino è stato emesso 3 ore e 34 minuti fa, alle 11:00 UTC
Previsione valida dal 13 alle 12 UTC al 14 alle 12 UTC
Vento 10 kt da sud/sud-ovest
Visibilità 10 km o più
nessuna nube inferiore a 1500 m e nessun cumulonembo
Evoluzione graduale
dal 13 alle 16 UTC al 13 alle 18 UTC
Vento 5 kt da direzioni variabili

TAF: LIME 131100Z 1312/1412 21010KT CAVOK BECMG 1316/1318 VRB05KT

Osservazioni e previsioni meteorologiche di più di 4000 aeroporti (messaggi METAR e TAF).

Le stazioni disponibili sono rappresentate dai dischi gialli e rossi sulla carta.

Puntare il mouse per vedere il nome della stazione.

Clicca sopra per visualizzare le osservazioni e previsioni meteorologiche.

Per cambiare la mappa : fare clic sui pulsanti verdi con una croce nera per ingrandire, il pulsante verde con un trattino per diminuire, o sulla freccia verde per le mappe adiacenti.


METAR-TAF: